createdAt,value
2022-12-11T00:02:02.986Z,141.10
2022-12-11T00:04:29.656Z,156.60
2022-12-11T00:06:56.218Z,136.23
2022-12-11T00:09:23.071Z,150.25
2022-12-11T00:11:49.633Z,143.00
2022-12-11T00:14:16.258Z,132.15
2022-12-11T00:16:42.975Z,134.63
2022-12-11T00:19:09.489Z,131.10
2022-12-11T00:21:36.089Z,123.55
2022-12-11T00:24:02.617Z,108.55
2022-12-11T00:26:29.193Z,93.85
2022-12-11T00:28:57.089Z,100.57
2022-12-11T00:31:24.113Z,80.63
2022-12-11T00:33:51.289Z,93.57
2022-12-11T00:36:20.529Z,83.00
2022-12-11T00:38:47.863Z,90.97
2022-12-11T00:41:15.280Z,81.78
2022-12-11T00:43:41.788Z,82.63
2022-12-11T00:46:08.603Z,82.43
2022-12-11T00:48:35.148Z,85.95
2022-12-11T00:51:01.811Z,77.47
2022-12-11T00:53:29.319Z,81.40
2022-12-11T00:55:55.834Z,83.70
2022-12-11T00:58:23.016Z,90.32
2022-12-11T01:00:51.978Z,85.88
2022-12-11T01:03:18.712Z,108.28
2022-12-11T01:05:55.460Z,103.70
2022-12-11T01:08:22.127Z,104.80
2022-12-11T01:10:48.946Z,95.80
2022-12-11T01:13:15.873Z,105.18
2022-12-11T01:15:45.138Z,85.28
2022-12-11T01:18:13.331Z,101.03
2022-12-11T01:20:42.380Z,108.75
2022-12-11T01:23:10.664Z,103.40
2022-12-11T01:25:40.182Z,118.57
2022-12-11T01:28:06.784Z,98.85
2022-12-11T01:30:33.415Z,97.60
2022-12-11T01:33:00.823Z,102.88
2022-12-11T01:35:27.759Z,109.10
2022-12-11T01:37:54.265Z,105.30
2022-12-11T01:40:21.719Z,103.05
2022-12-11T01:42:48.365Z,103.03
2022-12-11T01:45:28.931Z,108.10
2022-12-11T01:48:05.653Z,97.88
2022-12-11T01:50:35.066Z,108.20
2022-12-11T01:53:02.534Z,89.38
2022-12-11T01:55:29.020Z,105.80
2022-12-11T01:57:55.614Z,102.90
2022-12-11T02:00:22.121Z,99.45
2022-12-11T02:02:48.812Z,103.88
2022-12-11T02:05:15.502Z,94.15
2022-12-11T02:07:54.148Z,100.70
2022-12-11T02:10:23.523Z,103.90
2022-12-11T02:12:53.310Z,106.50
2022-12-11T02:15:28.471Z,100.13
2022-12-11T02:18:45.394Z,102.93
2022-12-11T02:21:26.554Z,101.07
2022-12-11T02:26:47.358Z,93.65
2022-12-11T02:29:20.149Z,107.65
2022-12-11T02:32:27.202Z,102.38
2022-12-11T02:35:04.739Z,110.45
2022-12-11T02:37:32.156Z,97.80
2022-12-11T02:39:58.704Z,103.28
2022-12-11T02:42:28.286Z,97.50
2022-12-11T02:44:56.832Z,100.28
2022-12-11T02:47:24.235Z,97.47
2022-12-11T02:49:52.006Z,96.88
2022-12-11T02:52:21.106Z,95.85
2022-12-11T02:54:49.001Z,98.50
2022-12-11T02:57:22.188Z,90.28
2022-12-11T02:59:48.741Z,86.93
2022-12-11T03:02:16.594Z,94.97
2022-12-11T03:04:45.294Z,84.68
2022-12-11T03:07:18.733Z,87.00
2022-12-11T03:09:47.382Z,98.72
2022-12-11T03:12:18.862Z,87.47
2022-12-11T03:14:45.577Z,90.65
2022-12-11T03:17:14.217Z,87.55
2022-12-11T03:19:53.416Z,86.75
2022-12-11T03:22:36.158Z,93.57
2022-12-11T03:25:07.866Z,93.35
2022-12-11T03:27:45.535Z,84.72
2022-12-11T03:30:16.330Z,89.95
2022-12-11T03:32:51.968Z,88.03
2022-12-11T03:35:22.459Z,86.32
2022-12-11T03:37:49.756Z,81.75
2022-12-11T03:40:17.741Z,86.03
2022-12-11T03:42:45.901Z,83.90
2022-12-11T03:45:13.198Z,84.63
2022-12-11T03:47:41.547Z,84.85
2022-12-11T03:50:10.059Z,85.05
2022-12-11T03:52:44.009Z,85.28
2022-12-11T03:55:14.120Z,86.47
2022-12-11T03:57:40.734Z,89.18
2022-12-11T04:00:10.612Z,82.30
2022-12-11T04:02:40.854Z,84.72
2022-12-11T04:05:08.316Z,89.57
2022-12-11T04:07:35.184Z,92.45
2022-12-11T04:10:03.904Z,92.30
2022-12-11T04:12:30.486Z,82.32
2022-12-11T04:15:02.852Z,90.18
2022-12-11T04:17:56.829Z,83.47
2022-12-11T04:20:42.421Z,87.65
2022-12-11T04:23:33.415Z,86.55
2022-12-11T04:26:06.903Z,80.45
2022-12-11T04:28:33.786Z,74.70
2022-12-11T04:31:01.022Z,75.75
2022-12-11T04:33:28.095Z,77.82
2022-12-11T04:35:55.035Z,70.25
2022-12-11T04:38:21.789Z,77.13
2022-12-11T04:40:48.525Z,81.82
2022-12-11T04:43:15.229Z,85.60
2022-12-11T04:45:42.027Z,80.15
2022-12-11T04:48:08.717Z,78.50
2022-12-11T04:50:35.447Z,86.32
2022-12-11T04:53:02.151Z,81.05
2022-12-11T04:55:28.778Z,89.65
2022-12-11T04:57:55.950Z,78.45
2022-12-11T05:00:22.913Z,80.05
2022-12-11T05:02:49.585Z,77.63
2022-12-11T05:05:16.279Z,82.97
2022-12-11T05:07:43.453Z,77.25
2022-12-11T05:10:10.596Z,71.35
2022-12-11T05:12:37.404Z,79.45
2022-12-11T05:15:04.395Z,77.53
2022-12-11T05:17:31.113Z,76.95
2022-12-11T05:19:57.776Z,76.00
2022-12-11T05:22:24.518Z,69.82
2022-12-11T05:24:51.292Z,85.22
2022-12-11T05:27:18.024Z,78.38
2022-12-11T05:29:44.752Z,67.75
2022-12-11T05:32:11.471Z,78.57
2022-12-11T05:34:38.266Z,72.03
2022-12-11T05:37:05.032Z,70.30
2022-12-11T05:39:31.751Z,74.93
2022-12-11T05:41:58.439Z,65.85
2022-12-11T05:44:25.866Z,74.00
2022-12-11T05:46:52.668Z,70.57
2022-12-11T05:49:20.130Z,68.65
2022-12-11T05:51:47.313Z,71.93
2022-12-11T05:54:14.166Z,68.28
2022-12-11T05:56:42.976Z,76.80
2022-12-11T05:59:10.133Z,77.55
2022-12-11T06:01:40.252Z,78.30
2022-12-11T06:04:09.244Z,77.13
2022-12-11T06:06:36.366Z,69.70
2022-12-11T06:09:05.004Z,65.80
2022-12-11T06:11:32.993Z,72.50
2022-12-11T06:14:01.614Z,72.47
2022-12-11T06:16:28.365Z,70.90
2022-12-11T06:18:58.250Z,65.85
2022-12-11T06:21:27.436Z,71.33
2022-12-11T06:23:58.241Z,71.63
2022-12-11T06:26:29.058Z,73.63
2022-12-11T06:28:55.879Z,66.20
2022-12-11T06:31:22.612Z,63.65
2022-12-11T06:33:49.567Z,66.65
2022-12-11T06:36:18.683Z,63.97
2022-12-11T06:38:45.912Z,69.00
2022-12-11T06:41:12.912Z,68.72
2022-12-11T06:43:40.311Z,61.65
2022-12-11T06:46:15.208Z,68.22
2022-12-11T06:48:42.786Z,64.68
2022-12-11T06:51:14.859Z,66.07
2022-12-11T06:53:41.641Z,69.07
2022-12-11T06:56:13.307Z,75.82
2022-12-11T06:58:40.836Z,65.80
2022-12-11T07:01:19.712Z,62.53
2022-12-11T07:03:49.039Z,66.70
2022-12-11T07:06:16.209Z,67.38
2022-12-11T07:08:43.537Z,68.35
2022-12-11T07:11:14.480Z,60.78
2022-12-11T07:13:44.411Z,77.93
2022-12-11T07:16:13.051Z,71.88
2022-12-11T07:18:41.448Z,72.07
2022-12-11T07:21:09.987Z,77.18
2022-12-11T07:23:36.721Z,67.53
2022-12-11T07:26:08.094Z,62.03
2022-12-11T07:28:39.518Z,62.17
2022-12-11T07:31:11.638Z,63.03
2022-12-11T07:33:40.475Z,72.53
2022-12-11T07:36:09.419Z,67.85
2022-12-11T07:38:36.710Z,63.30
2022-12-11T07:41:05.342Z,62.22
2022-12-11T07:43:33.467Z,64.93
2022-12-11T07:46:05.280Z,68.10
2022-12-11T07:48:32.273Z,67.20
2022-12-11T07:51:17.409Z,60.03
2022-12-11T07:53:49.288Z,64.32
2022-12-11T07:56:17.652Z,54.40
2022-12-11T07:58:46.561Z,58.38
2022-12-11T08:01:19.221Z,67.45
2022-12-11T08:03:46.228Z,58.03
2022-12-11T08:06:13.118Z,64.40
2022-12-11T08:08:41.346Z,57.47
2022-12-11T08:11:10.274Z,56.20
2022-12-11T08:13:37.463Z,66.25
2022-12-11T08:16:09.087Z,64.50
2022-12-11T08:18:36.617Z,60.08
2022-12-11T08:21:15.472Z,55.75
2022-12-11T08:23:42.530Z,62.42
2022-12-11T08:26:11.936Z,54.65
2022-12-11T08:28:38.709Z,61.53
2022-12-11T08:31:07.692Z,52.88
2022-12-11T08:33:36.392Z,56.08
2022-12-11T08:36:04.895Z,58.58
2022-12-11T08:38:31.687Z,61.10
2022-12-11T08:40:58.427Z,61.75
2022-12-11T08:43:25.485Z,51.92
2022-12-11T08:45:52.255Z,61.60
2022-12-11T08:48:18.985Z,55.28
2022-12-11T08:50:45.731Z,52.25
2022-12-11T08:53:12.581Z,54.20
2022-12-11T08:55:39.435Z,50.58
2022-12-11T08:58:06.147Z,51.90
2022-12-11T09:00:32.873Z,49.90
2022-12-11T09:02:59.601Z,44.50
2022-12-11T09:05:29.014Z,53.45
2022-12-11T09:07:55.752Z,44.00
2022-12-11T09:10:22.515Z,42.28
2022-12-11T09:12:49.275Z,36.38
2022-12-11T09:15:17.498Z,44.35
2022-12-11T09:17:44.246Z,44.00
2022-12-11T09:20:11.391Z,42.15
2022-12-11T09:22:38.585Z,42.58
2022-12-11T09:25:05.831Z,43.55
2022-12-11T09:27:34.133Z,42.72
2022-12-11T09:30:03.217Z,41.47
2022-12-11T09:32:30.430Z,41.42
2022-12-11T09:34:57.048Z,36.17
2022-12-11T09:37:23.808Z,36.22
2022-12-11T09:39:50.749Z,36.25
2022-12-11T09:42:41.959Z,42.22
2022-12-11T09:45:13.806Z,34.55
2022-12-11T09:47:43.096Z,34.92
2022-12-11T09:50:09.820Z,32.10
2022-12-11T09:52:59.933Z,31.05
2022-12-11T09:55:32.572Z,32.35
2022-12-11T09:58:14.349Z,34.13
2022-12-11T10:00:52.145Z,36.28
2022-12-11T10:03:32.815Z,32.65
2022-12-11T10:06:04.211Z,30.38
2022-12-11T10:08:57.057Z,35.67
2022-12-11T10:11:56.897Z,29.38
2022-12-11T10:14:35.874Z,43.17
2022-12-11T10:17:16.121Z,31.00
2022-12-11T10:19:43.090Z,37.53
2022-12-11T10:22:21.428Z,26.45
2022-12-11T10:25:12.534Z,25.58
2022-12-11T10:30:19.247Z,29.45
2022-12-11T10:33:09.257Z,27.35
2022-12-11T10:35:40.616Z,25.75
2022-12-11T10:38:13.275Z,28.85
2022-12-11T10:40:45.379Z,31.67
2022-12-11T10:43:12.473Z,37.95
2022-12-11T10:45:39.729Z,34.78
2022-12-11T10:48:10.827Z,33.42
2022-12-11T10:50:38.035Z,33.80
2022-12-11T10:53:05.429Z,34.50
2022-12-11T10:55:43.895Z,30.55
2022-12-11T10:58:20.393Z,33.08
2022-12-11T11:01:10.000Z,32.38
2022-12-11T11:03:52.769Z,33.45
2022-12-11T11:06:21.056Z,35.30
2022-12-11T11:08:50.494Z,33.90
2022-12-11T11:11:33.839Z,34.65
2022-12-11T11:14:20.945Z,31.30
2022-12-11T11:16:49.872Z,34.58
2022-12-11T11:19:25.392Z,41.83
2022-12-11T11:22:13.216Z,33.10
2022-12-11T11:24:43.479Z,38.15
2022-12-11T11:27:27.979Z,32.73
2022-12-11T11:29:58.351Z,35.92
2022-12-11T11:32:32.609Z,38.35
2022-12-11T11:35:15.814Z,46.60
2022-12-11T11:37:46.303Z,41.97
2022-12-11T11:40:33.712Z,40.45
2022-12-11T11:43:15.329Z,41.25
2022-12-11T11:45:59.213Z,39.88
2022-12-11T11:48:44.574Z,34.17
2022-12-11T11:51:24.552Z,42.90
2022-12-11T11:53:53.929Z,36.72
2022-12-11T11:56:27.899Z,38.80
2022-12-11T11:59:19.430Z,40.28
2022-12-11T12:01:46.139Z,34.60
2022-12-11T12:04:12.943Z,40.53
2022-12-11T12:06:57.881Z,39.28
2022-12-11T12:09:43.519Z,41.03
2022-12-11T12:12:41.074Z,41.97
2022-12-11T12:15:30.608Z,38.42
2022-12-11T12:18:13.258Z,43.15
2022-12-11T12:20:57.967Z,41.75
2022-12-11T12:23:46.241Z,34.97
2022-12-11T12:26:29.086Z,40.58
2022-12-11T12:29:06.926Z,43.50
2022-12-11T12:32:38.252Z,41.03
2022-12-11T12:35:10.740Z,40.42
2022-12-11T12:37:59.111Z,46.80
2022-12-11T12:41:03.406Z,45.40
2022-12-11T12:43:30.161Z,41.17
2022-12-11T12:46:19.994Z,38.03
2022-12-11T12:48:46.809Z,42.05
2022-12-11T12:51:15.214Z,35.92
2022-12-11T12:53:56.354Z,41.00
2022-12-11T12:58:49.901Z,43.40
2022-12-11T13:01:24.598Z,44.17
2022-12-11T13:04:08.662Z,46.90
2022-12-11T13:06:44.619Z,46.75
2022-12-11T13:09:25.232Z,45.35
2022-12-11T13:11:57.687Z,42.17
2022-12-11T13:14:32.513Z,42.78
2022-12-11T13:17:24.554Z,42.80
2022-12-11T13:20:10.024Z,45.25
2022-12-11T13:22:47.859Z,46.00
2022-12-11T13:25:27.814Z,40.83
2022-12-11T13:28:06.097Z,41.47
2022-12-11T13:30:33.033Z,43.90
2022-12-11T13:33:08.013Z,50.25
2022-12-11T13:35:35.440Z,44.85
2022-12-11T13:38:08.230Z,44.58
2022-12-11T13:40:43.238Z,46.35
2022-12-11T13:43:18.630Z,43.45
2022-12-11T13:45:54.417Z,47.40
2022-12-11T13:49:00.726Z,48.53
2022-12-11T13:51:29.934Z,44.92
2022-12-11T13:54:17.769Z,50.13
2022-12-11T13:57:06.055Z,43.00
2022-12-11T13:59:38.867Z,49.97
2022-12-11T14:02:33.161Z,55.17
2022-12-11T14:05:08.765Z,46.83
2022-12-11T14:07:38.955Z,49.95
2022-12-11T14:10:27.550Z,57.17
2022-12-11T14:13:01.616Z,52.97
2022-12-11T14:15:29.540Z,53.38
2022-12-11T14:17:56.781Z,47.83
2022-12-11T14:20:32.304Z,50.33
2022-12-11T14:23:20.105Z,52.42
2022-12-11T14:26:04.707Z,50.97
2022-12-11T14:28:37.726Z,56.53
2022-12-11T14:31:05.981Z,44.40
2022-12-11T14:33:35.987Z,43.75
2022-12-11T14:36:03.349Z,48.20
2022-12-11T14:38:40.301Z,46.65
2022-12-11T14:41:14.155Z,50.22
2022-12-11T14:43:51.520Z,43.97
2022-12-11T14:46:22.201Z,45.78
2022-12-11T14:49:01.223Z,47.03
2022-12-11T14:51:30.318Z,47.97
2022-12-11T14:53:57.435Z,47.35
2022-12-11T14:56:27.735Z,48.30
2022-12-11T14:58:55.962Z,44.47
2022-12-11T15:01:30.669Z,42.45
2022-12-11T15:04:03.592Z,48.45
2022-12-11T15:06:44.361Z,40.08
2022-12-11T15:09:33.661Z,45.28
2022-12-11T15:12:16.218Z,42.67
2022-12-11T15:14:57.402Z,43.85
2022-12-11T15:17:25.604Z,47.70
2022-12-11T15:20:04.460Z,49.15
2022-12-11T15:22:32.154Z,49.80
2022-12-11T15:24:59.812Z,49.58
2022-12-11T15:27:49.497Z,50.00
2022-12-11T15:30:28.479Z,46.13
2022-12-11T15:33:26.531Z,42.28
2022-12-11T15:36:04.876Z,47.67
2022-12-11T15:38:40.637Z,39.72
2022-12-11T15:41:13.636Z,26.40
2022-12-11T15:43:40.452Z,29.00
2022-12-11T15:46:07.417Z,31.63
2022-12-11T15:48:34.444Z,28.92
2022-12-11T15:51:01.150Z,25.13
2022-12-11T15:53:27.830Z,27.55
2022-12-11T15:55:54.669Z,28.95
2022-12-11T15:58:23.256Z,32.83
2022-12-11T16:00:50.492Z,29.85
2022-12-11T16:03:19.064Z,35.13
2022-12-11T16:05:45.948Z,31.73
2022-12-11T16:08:17.134Z,30.98
2022-12-11T16:10:45.015Z,28.38
2022-12-11T16:13:12.862Z,30.80
2022-12-11T16:15:42.054Z,28.27
2022-12-11T16:18:11.852Z,33.05
2022-12-11T16:20:40.228Z,30.42
2022-12-11T16:23:07.350Z,33.22
2022-12-11T16:25:34.425Z,30.85
2022-12-11T16:28:01.561Z,31.33
2022-12-11T16:30:29.591Z,29.50
2022-12-11T16:32:56.489Z,32.17
2022-12-11T16:35:23.458Z,31.05
2022-12-11T16:37:54.723Z,29.02
2022-12-11T16:40:22.113Z,36.13
2022-12-11T16:42:52.079Z,31.75
2022-12-11T16:45:21.106Z,35.20
2022-12-11T16:47:47.994Z,30.70
2022-12-11T16:50:16.403Z,34.38
2022-12-11T16:52:43.961Z,38.65
2022-12-11T16:55:12.235Z,31.75
2022-12-11T16:57:39.273Z,33.58
2022-12-11T17:00:08.832Z,35.40
2022-12-11T17:02:36.542Z,34.33
2022-12-11T17:05:03.483Z,38.08
2022-12-11T17:07:32.002Z,35.97
2022-12-11T17:09:58.832Z,34.10
2022-12-11T17:12:27.952Z,37.00
2022-12-11T17:14:55.996Z,34.85
2022-12-11T17:17:22.858Z,33.72
2022-12-11T17:19:49.608Z,30.38
2022-12-11T17:22:16.422Z,36.20
2022-12-11T17:24:43.143Z,39.40
2022-12-11T17:27:09.817Z,31.33
2022-12-11T17:29:36.488Z,33.63
2022-12-11T17:32:03.334Z,30.40
2022-12-11T17:34:36.050Z,34.10
2022-12-11T17:37:04.710Z,34.63
2022-12-11T17:39:31.606Z,30.83
2022-12-11T17:41:58.385Z,33.90
2022-12-11T17:44:26.865Z,34.70
2022-12-11T17:46:53.712Z,34.65
2022-12-11T17:49:20.503Z,33.72
2022-12-11T17:51:48.019Z,34.45
2022-12-11T17:54:14.950Z,38.70
2022-12-11T17:56:41.648Z,37.85
2022-12-11T17:59:08.451Z,38.58
2022-12-11T18:01:36.367Z,38.60
2022-12-11T18:04:03.900Z,34.85
2022-12-11T18:06:30.900Z,36.45
2022-12-11T18:08:59.772Z,36.60
2022-12-11T18:11:26.626Z,32.95
2022-12-11T18:13:53.552Z,32.45
2022-12-11T18:16:30.563Z,34.38
2022-12-11T18:18:57.309Z,34.45
2022-12-11T18:21:27.896Z,39.33
2022-12-11T18:23:55.275Z,35.47
2022-12-11T18:26:22.410Z,42.17
2022-12-11T18:28:50.534Z,36.95
2022-12-11T18:31:19.661Z,34.40
2022-12-11T18:33:47.075Z,34.40
2022-12-11T18:36:15.237Z,33.45
2022-12-11T18:38:43.116Z,42.28
2022-12-11T18:41:12.225Z,37.10
2022-12-11T18:43:40.343Z,38.50
2022-12-11T18:46:15.209Z,38.22
2022-12-11T18:48:43.008Z,37.97
2022-12-11T18:51:13.704Z,42.80
2022-12-11T18:53:43.265Z,41.88
2022-12-11T18:56:13.192Z,36.95
2022-12-11T18:58:40.291Z,31.45
2022-12-11T19:01:12.554Z,38.33
2022-12-11T19:03:39.718Z,38.78
2022-12-11T19:06:08.795Z,36.00
2022-12-11T19:08:35.554Z,35.22
2022-12-11T19:11:02.457Z,36.72
2022-12-11T19:13:29.255Z,36.28
2022-12-11T19:15:56.039Z,41.70
2022-12-11T19:18:22.831Z,39.47
2022-12-11T19:20:55.635Z,42.17
2022-12-11T19:23:31.764Z,40.97
2022-12-11T19:25:58.469Z,40.40
2022-12-11T19:28:27.444Z,42.67
2022-12-11T19:30:54.143Z,43.17
2022-12-11T19:33:22.289Z,39.10
2022-12-11T19:35:48.906Z,39.65
2022-12-11T19:38:15.746Z,44.00
2022-12-11T19:40:44.251Z,37.38
2022-12-11T19:43:11.374Z,45.58
2022-12-11T19:45:38.508Z,40.88
2022-12-11T19:48:05.691Z,40.65
2022-12-11T19:50:35.256Z,39.78
2022-12-11T19:53:01.985Z,39.13
2022-12-11T19:55:28.875Z,44.30
2022-12-11T19:57:55.944Z,46.78
2022-12-11T20:00:24.898Z,47.40
2022-12-11T20:02:51.745Z,46.72
2022-12-11T20:05:18.532Z,43.65
2022-12-11T20:07:45.925Z,40.90
2022-12-11T20:10:12.805Z,43.97
2022-12-11T20:12:39.487Z,40.15
2022-12-11T20:15:06.541Z,43.60
2022-12-11T20:17:33.509Z,41.38
2022-12-11T20:20:00.502Z,43.78
2022-12-11T20:22:27.350Z,40.80
2022-12-11T20:24:54.027Z,39.00
2022-12-11T20:27:20.866Z,40.80
2022-12-11T20:29:47.622Z,37.47
2022-12-11T20:32:14.453Z,45.80
2022-12-11T20:34:41.276Z,40.42
2022-12-11T20:37:07.955Z,51.95
2022-12-11T20:39:35.623Z,44.88
2022-12-11T20:42:04.830Z,45.25
2022-12-11T20:44:32.060Z,48.80
2022-12-11T20:46:58.771Z,41.88
2022-12-11T20:49:26.307Z,46.85
2022-12-11T20:51:53.139Z,44.58
2022-12-11T20:54:19.822Z,38.75
2022-12-11T20:56:46.519Z,46.90
2022-12-11T20:59:13.368Z,53.17
2022-12-11T21:01:40.412Z,45.38
2022-12-11T21:04:07.767Z,49.22
2022-12-11T21:06:37.069Z,51.17
2022-12-11T21:09:07.559Z,47.25
2022-12-11T21:11:37.076Z,48.38
2022-12-11T21:14:04.548Z,49.33
2022-12-11T21:16:32.187Z,50.78
2022-12-11T21:18:59.193Z,49.47
2022-12-11T21:21:26.328Z,55.13
2022-12-11T21:23:53.127Z,48.55
2022-12-11T21:26:20.094Z,47.92
2022-12-11T21:28:46.822Z,52.58
2022-12-11T21:31:16.278Z,51.05
2022-12-11T21:33:43.107Z,51.63
2022-12-11T21:36:13.610Z,53.40
2022-12-11T21:38:41.668Z,55.33
2022-12-11T21:41:13.672Z,49.10
2022-12-11T21:44:14.277Z,56.42
2022-12-11T21:46:29.303Z,50.90
2022-12-11T21:48:56.085Z,54.20
2022-12-11T21:51:36.885Z,49.97
2022-12-11T21:54:06.573Z,49.70
2022-12-11T21:56:34.027Z,52.55
2022-12-11T21:59:01.706Z,56.60
2022-12-11T22:01:34.331Z,57.58
2022-12-11T22:04:01.205Z,60.58
2022-12-11T22:06:28.488Z,56.72
2022-12-11T22:08:55.200Z,56.47
2022-12-11T22:11:25.018Z,48.22
2022-12-11T22:13:52.399Z,53.88
2022-12-11T22:16:20.111Z,54.00
2022-12-11T22:18:46.922Z,54.95
2022-12-11T22:21:14.054Z,59.28
2022-12-11T22:23:41.931Z,51.92
2022-12-11T22:26:11.036Z,52.67
2022-12-11T22:28:37.735Z,57.53
2022-12-11T22:31:04.726Z,55.90
2022-12-11T22:33:31.486Z,56.20
2022-12-11T22:35:59.465Z,54.22
2022-12-11T22:38:26.524Z,57.05
2022-12-11T22:40:54.067Z,59.55
2022-12-11T22:43:21.675Z,57.17
2022-12-11T22:45:49.133Z,56.60
2022-12-11T22:48:15.833Z,55.60
2022-12-11T22:50:42.816Z,60.35
2022-12-11T22:53:12.062Z,59.95
2022-12-11T22:55:40.385Z,57.92
2022-12-11T22:58:07.375Z,57.55
2022-12-11T23:00:34.584Z,63.13
2022-12-11T23:03:02.198Z,62.25
2022-12-11T23:05:29.365Z,59.88
2022-12-11T23:07:56.120Z,60.20
2022-12-11T23:10:22.897Z,63.88
2022-12-11T23:12:49.613Z,70.78
2022-12-11T23:15:16.548Z,57.90
2022-12-11T23:17:43.350Z,65.00
2022-12-11T23:20:10.814Z,61.42
2022-12-11T23:22:37.493Z,60.20
2022-12-11T23:25:04.533Z,64.95
2022-12-11T23:27:33.607Z,60.15
2022-12-11T23:30:00.307Z,65.18
2022-12-11T23:32:27.479Z,62.38
2022-12-11T23:34:54.212Z,64.72
2022-12-11T23:37:20.884Z,60.78
2022-12-11T23:39:47.608Z,60.75
2022-12-11T23:42:14.360Z,61.15
2022-12-11T23:44:41.478Z,62.92
2022-12-11T23:47:08.179Z,60.17
2022-12-11T23:49:35.721Z,57.72
2022-12-11T23:52:02.647Z,58.28
2022-12-11T23:54:30.630Z,58.63
2022-12-11T23:56:57.904Z,55.63
2022-12-11T23:59:24.558Z,54.60
